EBLG

Liège Airport

Liège, Belgium
METAR EBLG 241120Z 33008KT 290V360 6000 -SHRA FEW016 SCT022TCU 09/08 Q1036 NOSIG
Observed Flight Rules
Sep-24 @ 11:20 UTC (35 minutes ago) Marginal Visual Flight Rules
Wind Visibility Clouds Conditions
330° at 8 knots 6,003 meters
  • Few at 1,600' AGL
  • Scattered at 2,200' AGL
  • Light Rain
Temperatures Readings
Current 9°C / 48°F
Dewpoint 8°C / 46°F
Humidity 94%
Altimeter 30.59" Hg
Pressure 1036 hPa
Elevation 178
METAR EBLG 241120Z 33008KT 290V360 6000 -SHRA FEW016 SCT022TCU 09/08 Q1036 NOSIG
Observed Flight Rules
Sep-24 @ 11:20 UTC
(35 minutes ago)
MVFR
Wind Visibility
330° at 8 knots 6,003 meters
Clouds
  • Few at 1,600' AGL
  • Scattered at 2,200' AGL
Conditions
  • Light Rain
Temperature Dewpoint
9°C / 48°F 8°C / 46°F
Humidity Altimeter Pressure
94% 30.59" Hg 1036 hPa